Tokeneke, Connecticut
Current Conditions -  °F | °C
As of 10:56 PM on Saturday 25 Oct 2014 (Local Time) from KHPN Reporting Station
Clear Clear  
Wind Chill: 16°   Ceiling: Unl
Heat Index: 16°   Visibility: 10mi
Dew Point:   Wind: 5mph
Humidity: 53%   Direction: NA
Pressure: 29.57"   Gusts: NA
Location:  41.0804°N, 73.4823°W
Report Text: KHPN 260256Z VRB04KT 10SM CLR 16/06 A2957 RMK AO2 SLP011 T01560061 56017
Loading
Personal Weather Stations






























Interactive Weather Map
Tropical Storm Tracking
New forecast layout! Learn more

10-Day Weather Forecast

Advertisements
Track Severe Weather on mobile